Time;durP1;ratioP1;P1;durP2;ratioP2;P2;SDS_P1;SDS_P2;PMS_P1;PMS_P2;Temp;Humidity;BMP_temperature;BMP_pressure;BME280_temperature;BME280_humidity;BME280_pressure;Samples;Min_cycle;Max_cycle;Signal;HPM_P1;HPM_P2
2023/06/02 00:01:01;;;;;;;9.95;6.97;;;;;;;20.57;43.86;93134.31;5026978;28;20511;-91
2023/06/02 00:03:32;;;;;;;11.55;7.60;;;;;;;20.56;43.58;93135.56;5009771;28;20034;-91
2023/06/02 00:06:05;;;;;;;9.27;7.13;;;;;;;20.57;43.54;93137.06;5010583;28;20144;-92
2023/06/02 00:08:31;;;;;;;9.73;7.40;;;;;;;20.56;43.49;93135.56;5025867;28;20561;-92
2023/06/02 00:10:57;;;;;;;9.15;6.80;;;;;;;20.55;43.64;93134.09;5027078;28;20172;-91
2023/06/02 00:13:22;;;;;;;10.40;7.28;;;;;;;20.53;43.53;93127.13;5026352;28;20519;-92
2023/06/02 00:15:48;;;;;;;9.48;6.88;;;;;;;20.55;43.59;93126.59;5021582;28;20067;-92
2023/06/02 00:18:14;;;;;;;9.82;7.05;;;;;;;20.53;43.63;93120.91;4993563;28;20041;-92
2023/06/02 00:20:40;;;;;;;9.25;6.70;;;;;;;20.54;43.19;93125.13;5036863;28;20055;-91
2023/06/02 00:23:08;;;;;;;9.43;6.40;;;;;;;20.55;43.39;93129.34;5062889;28;20037;-92
2023/06/02 00:25:35;;;;;;;9.13;7.13;;;;;;;20.52;43.54;93128.41;5021375;28;20538;-91
2023/06/02 00:28:00;;;;;;;9.07;6.95;;;;;;;20.52;43.39;93130.41;5011796;28;20046;-91
2023/06/02 00:30:27;;;;;;;8.07;5.97;;;;;;;20.52;43.43;93127.66;5056543;28;20408;-92
2023/06/02 00:32:52;;;;;;;11.02;6.72;;;;;;;20.51;43.23;93124.16;5038733;28;20133;-92
2023/06/02 00:35:18;;;;;;;8.30;6.38;;;;;;;20.53;43.25;93118.16;5009045;28;20041;-91
2023/06/02 00:37:43;;;;;;;9.30;7.25;;;;;;;20.51;43.27;93121.44;5020750;28;20086;-91
2023/06/02 00:40:12;;;;;;;9.73;6.70;;;;;;;20.50;43.53;93122.69;5010345;28;20038;-92
2023/06/02 00:42:37;;;;;;;8.48;6.55;;;;;;;20.50;43.42;93124.69;5033894;28;20038;-91
2023/06/02 00:45:03;;;;;;;7.78;6.07;;;;;;;20.51;43.29;93124.16;5037213;28;20802;-90
2023/06/02 00:47:28;;;;;;;7.68;6.32;;;;;;;20.50;43.46;93130.19;5010492;28;20041;-92
2023/06/02 00:49:54;;;;;;;7.95;7.07;;;;;;;20.48;43.40;93147.19;5032945;28;20499;-91
2023/06/02 00:52:19;;;;;;;8.32;5.93;;;;;;;20.50;43.48;93139.16;5009126;28;20041;-92
2023/06/02 00:54:45;;;;;;;9.05;6.30;;;;;;;20.49;43.31;93137.69;5031049;28;20050;-91
2023/06/02 00:57:10;;;;;;;9.38;6.70;;;;;;;20.49;43.38;93139.69;5009521;28;20065;-91
2023/06/02 00:59:37;;;;;;;8.02;5.82;;;;;;;20.48;43.25;93141.72;5027992;28;20143;-91
2023/06/02 01:02:03;;;;;;;9.93;5.95;;;;;;;20.48;43.40;93140.97;5012791;28;20064;-91
2023/06/02 01:04:30;;;;;;;8.63;6.32;;;;;;;20.48;43.46;93136.22;5041368;28;20033;-92
2023/06/02 01:06:55;;;;;;;8.32;6.13;;;;;;;20.48;43.22;93129.97;4990354;28;20088;-92
2023/06/02 01:09:22;;;;;;;8.43;6.40;;;;;;;20.47;43.34;93137.47;5061821;28;20029;-91
2023/06/02 01:11:47;;;;;;;8.63;6.45;;;;;;;20.47;43.29;93139.50;5010764;28;20044;-91
2023/06/02 01:14:13;;;;;;;6.90;5.68;;;;;;;20.46;43.24;93140.75;5044802;28;20041;-91
2023/06/02 01:16:39;;;;;;;8.60;6.18;;;;;;;20.46;43.50;93127.78;5011852;28;20293;-91
2023/06/02 01:19:06;;;;;;;7.80;5.97;;;;;;;20.46;43.31;93135.25;4996465;28;20037;-92
2023/06/02 01:21:34;;;;;;;7.07;5.45;;;;;;;20.46;43.32;93135.25;5026445;28;20484;-91
2023/06/02 01:23:59;;;;;;;7.82;5.80;;;;;;;20.47;43.31;93125.75;5059233;28;20048;-91
2023/06/02 01:26:25;;;;;;;7.90;6.30;;;;;;;20.44;43.57;93133.06;5029016;28;20033;-92
2023/06/02 01:28:50;;;;;;;7.45;5.95;;;;;;;20.44;43.59;93132.31;4999832;28;20084;-92
2023/06/02 01:31:22;;;;;;;7.32;5.18;;;;;;;20.45;43.37;93136.53;5009193;28;20048;-92
2023/06/02 01:34:05;;;;;;;8.65;6.28;;;;;;;20.42;43.44;93127.34;5023212;28;20048;-92
2023/06/02 01:36:31;;;;;;;6.13;5.28;;;;;;;20.44;43.46;93135.06;5006161;28;20046;-91
2023/06/02 01:38:57;;;;;;;6.88;5.20;;;;;;;20.42;43.43;93132.84;5021919;28;20509;-92
2023/06/02 01:41:23;;;;;;;6.70;5.55;;;;;;;20.43;43.77;93142.56;5028725;28;20056;-92
2023/06/02 01:43:49;;;;;;;7.95;5.43;;;;;;;20.42;43.28;93132.84;5033694;28;20389;-91
2023/06/02 01:46:15;;;;;;;7.95;5.32;;;;;;;20.44;43.39;93129.56;5046926;28;20041;-92
2023/06/02 01:48:40;;;;;;;8.65;5.43;;;;;;;20.42;43.22;93129.34;5033098;28;20051;-92
2023/06/02 01:51:06;;;;;;;7.70;5.50;;;;;;;20.42;43.25;93132.09;5051836;28;20459;-91
2023/06/02 01:53:31;;;;;;;7.50;5.65;;;;;;;20.41;43.20;93133.38;4996957;28;20045;-91
2023/06/02 01:55:57;;;;;;;7.78;5.47;;;;;;;20.43;43.15;93136.31;5042597;28;20475;-91
2023/06/02 01:58:22;;;;;;;6.10;4.82;;;;;;;20.42;43.00;93130.09;5012351;28;20061;-91
2023/06/02 02:00:47;;;;;;;6.15;4.65;;;;;;;20.41;43.31;93133.38;5013229;28;20512;-91
2023/06/02 02:03:13;;;;;;;6.57;5.13;;;;;;;20.41;43.59;93127.88;5029170;28;20049;-91
2023/06/02 02:05:39;;;;;;;6.93;5.28;;;;;;;20.40;43.12;93127.13;5009980;28;20033;-91
2023/06/02 02:08:04;;;;;;;6.72;5.40;;;;;;;20.40;43.50;93121.66;5045720;28;20056;-91
2023/06/02 02:10:30;;;;;;;6.22;4.85;;;;;;;20.40;43.50;93132.63;5015956;28;20484;-92
2023/06/02 02:12:55;;;;;;;5.88;4.60;;;;;;;20.41;43.26;93127.88;5032740;28;20033;-92
2023/06/02 02:15:21;;;;;;;6.97;5.70;;;;;;;20.40;43.27;93131.88;5064398;28;20430;-91
2023/06/02 02:17:47;;;;;;;6.78;5.05;;;;;;;20.39;43.36;93128.41;5014130;28;20107;-92
2023/06/02 02:20:16;;;;;;;6.90;5.57;;;;;;;20.39;43.36;93131.16;5028882;28;20041;-92
2023/06/02 02:22:41;;;;;;;9.32;4.93;;;;;;;20.40;43.28;93131.88;5022872;28;20051;-91
2023/06/02 02:25:07;;;;;;;6.68;4.93;;;;;;;20.40;43.29;93129.16;5002880;28;20044;-92
2023/06/02 02:27:33;;;;;;;6.55;4.60;;;;;;;20.40;43.26;93131.88;5041198;28;20056;-91
2023/06/02 02:29:58;;;;;;;4.95;4.22;;;;;;;20.38;43.39;93140.66;5010196;28;20034;-91
2023/06/02 02:32:23;;;;;;;6.15;4.63;;;;;;;20.40;43.40;93131.88;5044462;28;20041;-91
2023/06/02 02:34:49;;;;;;;5.47;4.60;;;;;;;20.39;43.35;93133.91;5011942;28;20049;-91
2023/06/02 02:37:16;;;;;;;6.13;4.05;;;;;;;20.38;43.64;93129.66;5043606;28;20119;-92
2023/06/02 02:39:41;;;;;;;5.47;4.60;;;;;;;20.39;43.28;93127.66;5001207;28;20038;-91
2023/06/02 02:42:08;;;;;;;5.82;4.68;;;;;;;20.37;43.11;93135.69;5040153;28;20421;-91
2023/06/02 02:44:33;;;;;;;7.15;5.40;;;;;;;20.36;43.09;93132.19;5019779;28;20100;-92
2023/06/02 02:46:59;;;;;;;5.82;4.50;;;;;;;20.37;43.22;93138.44;5010579;28;20472;-92
2023/06/02 02:49:25;;;;;;;6.32;4.38;;;;;;;20.36;43.35;93128.69;5042685;28;20038;-92
2023/06/02 02:51:51;;;;;;;8.63;4.78;;;;;;;20.36;43.24;93129.44;5002185;28;20100;-91
2023/06/02 02:54:16;;;;;;;5.15;4.43;;;;;;;20.35;43.43;93136.19;4980956;28;20038;-91
2023/06/02 02:56:43;;;;;;;5.70;4.28;;;;;;;20.36;43.31;93136.94;5011521;28;20075;-92
2023/06/02 02:59:09;;;;;;;5.63;4.25;;;;;;;20.36;43.33;93134.94;5040196;28;20061;-92
2023/06/02 03:01:36;;;;;;;5.53;4.28;;;;;;;20.35;43.23;93127.94;5032890;28;20132;-91
2023/06/02 03:04:02;;;;;;;6.07;4.65;;;;;;;20.34;43.25;93145.72;5023161;28;20065;-92
2023/06/02 03:06:31;;;;;;;5.40;4.30;;;;;;;20.34;43.45;93142.25;5006551;28;20042;-92
2023/06/02 03:08:58;;;;;;;5.88;4.60;;;;;;;20.36;43.15;93136.94;5022048;28;20064;-91
2023/06/02 03:11:24;;;;;;;7.70;4.75;;;;;;;20.34;43.34;93140.22;5031252;28;20044;-91
2023/06/02 03:13:49;;;;;;;6.82;4.50;;;;;;;20.34;43.39;93139.50;5024748;28;20041;-91
2023/06/02 03:16:16;;;;;;;5.90;4.40;;;;;;;20.35;43.11;93146.47;5006218;28;20052;-91
2023/06/02 03:18:41;;;;;;;4.60;3.88;;;;;;;20.33;43.20;93147.00;5011286;28;20440;-91
2023/06/02 03:21:07;;;;;;;6.47;4.40;;;;;;;20.34;43.15;93137.47;5016063;28;20048;-91
2023/06/02 03:23:33;;;;;;;5.13;4.00;;;;;;;20.35;42.87;93143.72;5057503;28;20514;-91
2023/06/02 03:26:02;;;;;;;4.97;4.10;;;;;;;20.34;42.97;93134.00;5031011;28;20064;-91
2023/06/02 03:28:28;;;;;;;6.50;3.97;;;;;;;20.34;43.21;93145.72;5027290;28;20125;-92
2023/06/02 03:30:53;;;;;;;5.03;3.90;;;;;;;20.33;43.04;93138.75;5008265;28;20401;-91
2023/06/02 03:33:20;;;;;;;5.82;4.40;;;;;;;20.32;42.96;93139.28;4991390;28;20046;-91
2023/06/02 03:35:45;;;;;;;5.07;4.47;;;;;;;20.31;43.19;93137.81;5011121;28;20048;-91
2023/06/02 03:38:11;;;;;;;5.97;4.30;;;;;;;20.32;43.58;93139.28;5010353;28;20029;-91
2023/06/02 03:40:36;;;;;;;7.43;4.38;;;;;;;20.32;43.18;93128.31;5014522;28;20102;-92
2023/06/02 03:43:02;;;;;;;4.93;4.03;;;;;;;20.34;43.12;93142.25;5044212;28;20041;-91
2023/06/02 03:45:27;;;;;;;5.72;4.20;;;;;;;20.33;42.95;93138.75;5024532;28;20107;-91
2023/06/02 03:47:52;;;;;;;5.90;4.05;;;;;;;20.32;43.24;93145.50;5022809;28;20042;-92
2023/06/02 03:50:18;;;;;;;6.65;4.75;;;;;;;20.32;43.16;93145.50;5010050;28;20037;-92
2023/06/02 03:52:44;;;;;;;4.53;3.95;;;;;;;20.32;43.16;93144.78;5020827;28;20112;-92
2023/06/02 03:55:09;;;;;;;5.82;4.20;;;;;;;20.31;43.11;93141.28;5007510;28;20045;-91
2023/06/02 03:57:35;;;;;;;5.93;4.20;;;;;;;20.31;43.02;93146.78;5010957;28;20046;-91
2023/06/02 04:00:00;;;;;;;5.88;4.43;;;;;;;20.32;43.06;93144.78;5040247;28;20045;-92
2023/06/02 04:02:26;;;;;;;5.18;4.07;;;;;;;20.34;43.30;93151.22;5057944;28;20827;-92
2023/06/02 04:04:52;;;;;;;4.70;3.78;;;;;;;20.34;43.33;93155.97;5037317;28;20044;-92
2023/06/02 04:07:18;;;;;;;4.47;3.85;;;;;;;20.36;42.92;93154.13;5043532;28;20049;-91
2023/06/02 04:09:44;;;;;;;5.05;4.13;;;;;;;20.36;42.92;93150.66;4995323;28;20044;-91
2023/06/02 04:12:09;;;;;;;5.07;3.92;;;;;;;20.36;42.95;93156.88;5041029;28;20029;-91
2023/06/02 04:14:35;;;;;;;7.15;4.28;;;;;;;20.36;42.84;93156.16;5010971;28;20033;-92
2023/06/02 04:17:03;;;;;;;5.70;4.00;;;;;;;20.39;42.71;93152.38;5023210;28;20103;-92
2023/06/02 04:19:28;;;;;;;6.15;4.18;;;;;;;20.38;42.64;93154.38;5012335;28;20045;-92
2023/06/02 04:21:53;;;;;;;4.97;4.10;;;;;;;20.38;42.75;93151.63;5029306;28;20084;-91
2023/06/02 04:24:22;;;;;;;5.05;3.95;;;;;;;20.39;43.05;93155.13;5013056;28;20112;-92
2023/06/02 04:26:47;;;;;;;5.53;4.38;;;;;;;20.41;42.99;93152.59;4996557;28;20044;-92
2023/06/02 04:29:13;;;;;;;5.55;3.63;;;;;;;20.40;42.90;93151.09;5028343;28;20041;-92
2023/06/02 04:31:39;;;;;;;5.72;4.18;;;;;;;20.43;42.83;93147.31;5013277;28;20041;-92
2023/06/02 04:34:05;;;;;;;5.32;3.90;;;;;;;20.44;42.62;93151.53;5029155;28;20049;-91
2023/06/02 04:36:30;;;;;;;5.82;3.90;;;;;;;20.45;42.83;93159.25;5029096;28;20141;-91
2023/06/02 04:38:57;;;;;;;4.78;3.65;;;;;;;20.48;42.72;93165.69;5013157;28;20048;-91
2023/06/02 04:41:22;;;;;;;4.68;3.35;;;;;;;20.47;42.79;93166.94;5031086;28;20494;-92
2023/06/02 04:43:48;;;;;;;4.45;3.65;;;;;;;20.47;42.87;93166.94;5022598;28;20582;-91
2023/06/02 04:46:13;;;;;;;4.57;3.17;;;;;;;20.48;42.78;93151.94;5027084;28;20115;-91
2023/06/02 04:48:40;;;;;;;5.35;4.07;;;;;;;20.48;42.80;93160.94;4995825;28;20519;-91
2023/06/02 04:51:05;;;;;;;5.45;3.75;;;;;;;20.52;42.66;93160.59;4999336;28;20044;-92
2023/06/02 04:53:31;;;;;;;6.28;3.40;;;;;;;20.48;42.20;93155.44;5021582;28;20060;-91
2023/06/02 04:55:57;;;;;;;4.97;4.07;;;;;;;20.40;42.64;93160.09;5007328;28;20489;-91
2023/06/02 04:58:23;;;;;;;7.15;3.25;;;;;;;20.43;42.61;93148.03;5009775;28;20049;-92
2023/06/02 05:00:49;;;;;;;5.57;3.47;;;;;;;20.39;42.62;93150.38;5021304;28;20517;-91
2023/06/02 05:03:14;;;;;;;8.55;3.90;;;;;;;20.44;42.38;93159.78;5010542;28;20048;-91
2023/06/02 05:05:40;;;;;;;10.15;3.85;;;;;;;20.44;42.51;93149.53;5046819;28;20052;-92
2023/06/02 05:08:06;;;;;;;4.13;3.35;;;;;;;20.48;42.36;93157.44;4994251;28;20059;-93
2023/06/02 05:10:31;;;;;;;5.28;3.70;;;;;;;20.50;42.53;93152.16;5022065;28;20037;-92
2023/06/02 05:12:57;;;;;;;5.43;3.67;;;;;;;20.50;42.47;93158.41;5013557;28;20045;-92
2023/06/02 05:15:22;;;;;;;7.68;3.72;;;;;;;20.53;42.32;93162.09;5026235;28;20042;-92
2023/06/02 05:17:48;;;;;;;5.93;3.40;;;;;;;20.57;42.74;93159.03;4997121;28;20045;-92
2023/06/02 05:20:13;;;;;;;3.40;3.05;;;;;;;20.59;42.48;93161.94;4996663;28;20046;-93
2023/06/02 05:22:39;;;;;;;4.82;3.25;;;;;;;20.59;42.59;93146.22;5014637;28;20045;-92
2023/06/02 05:25:05;;;;;;;3.50;2.67;;;;;;;20.62;42.54;93166.38;5062209;28;20457;-91
2023/06/02 05:27:30;;;;;;;3.22;2.70;;;;;;;20.64;42.75;93170.09;4999298;28;20049;-92
2023/06/02 05:29:56;;;;;;;4.47;3.30;;;;;;;20.65;42.53;93168.81;5025313;28;20038;-92
2023/06/02 05:32:24;;;;;;;5.22;2.53;;;;;;;20.66;42.43;93164.06;5013163;28;20432;-92
2023/06/02 05:34:52;;;;;;;3.67;2.80;;;;;;;20.69;42.62;93163.75;5041481;28;20041;-92
2023/06/02 05:37:18;;;;;;;3.70;2.70;;;;;;;20.71;42.55;93163.94;4999930;28;20509;-92
2023/06/02 05:39:44;;;;;;;2.78;2.33;;;;;;;20.71;42.37;93171.44;5026588;28;20041;-91
2023/06/02 05:42:10;;;;;;;4.53;2.40;;;;;;;20.71;42.47;93172.19;5028693;28;20045;-92
2023/06/02 05:44:35;;;;;;;2.75;2.20;;;;;;;20.74;42.46;93171.13;4997277;28;20072;-92
2023/06/02 05:47:00;;;;;;;4.63;2.33;;;;;;;20.74;42.35;93170.38;5025646;28;20041;-92
2023/06/02 05:49:26;;;;;;;2.58;2.15;;;;;;;20.73;42.85;93177.91;5012779;28;20049;-92
2023/06/02 05:51:51;;;;;;;2.85;1.88;;;;;;;20.76;42.51;93174.09;5027213;28;20380;-92
2023/06/02 05:54:17;;;;;;;2.60;2.00;;;;;;;20.78;42.19;93179.06;5021372;28;20436;-92
2023/06/02 05:56:43;;;;;;;3.03;2.33;;;;;;;20.77;42.52;93183.81;5001656;28;20026;-92
2023/06/02 05:59:08;;;;;;;2.15;1.95;;;;;;;20.80;42.50;93174.47;5026212;28;20053;-92
2023/06/02 06:01:34;;;;;;;2.80;2.10;;;;;;;20.81;42.44;93173.22;5010532;28;20037;-92
2023/06/02 06:03:59;;;;;;;2.75;1.65;;;;;;;20.85;42.52;93176.38;5042115;28;20037;-92
2023/06/02 06:06:25;;;;;;;2.88;2.22;;;;;;;20.86;42.59;93174.38;5009816;28;20029;-92
2023/06/02 06:08:50;;;;;;;2.88;2.00;;;;;;;20.86;42.67;93168.88;5043879;28;20060;-91
2023/06/02 06:11:16;;;;;;;2.60;2.00;;;;;;;20.88;42.48;93172.56;5015026;28;20103;-92
2023/06/02 06:13:42;;;;;;;2.25;1.80;;;;;;;20.88;42.38;93172.56;5025286;28;20041;-92
2023/06/02 06:16:07;;;;;;;2.42;2.00;;;;;;;20.90;42.33;93182.28;4999165;28;20059;-92
2023/06/02 06:18:33;;;;;;;2.20;1.90;;;;;;;20.87;42.53;93165.59;5019913;28;20417;-92
2023/06/02 06:20:58;;;;;;;2.47;1.85;;;;;;;20.91;42.44;93175.53;5023009;28;20315;-91
2023/06/02 06:23:25;;;;;;;2.47;1.77;;;;;;;20.92;42.44;93183.22;5026012;28;20038;-92
2023/06/02 06:25:50;;;;;;;3.17;1.98;;;;;;;20.93;42.41;93170.22;5028944;28;20056;-92
2023/06/02 06:28:16;;;;;;;2.00;1.60;;;;;;;20.96;42.06;93180.91;4984470;28;20034;-93
2023/06/02 06:30:41;;;;;;;6.18;1.95;;;;;;;20.96;42.38;93186.41;5015069;28;20057;-92
2023/06/02 06:33:09;;;;;;;2.83;1.80;;;;;;;20.97;42.34;93192.63;5011303;28;20038;-92
2023/06/02 06:35:35;;;;;;;2.17;1.98;;;;;;;20.99;42.52;93184.59;5022268;28;20033;-94
2023/06/02 06:38:01;;;;;;;2.35;1.30;;;;;;;20.99;42.33;93184.59;5029476;28;20514;-92
2023/06/02 06:40:27;;;;;;;2.50;1.75;;;;;;;21.00;42.45;93194.31;5048101;28;20037;-93
2023/06/02 06:42:52;;;;;;;2.53;1.50;;;;;;;21.01;42.70;93188.25;5026660;28;20084;-93
2023/06/02 06:45:17;;;;;;;5.57;1.73;;;;;;;21.02;42.07;93187.00;5046669;28;20033;-93
2023/06/02 06:47:43;;;;;;;4.45;2.05;;;;;;;21.03;42.25;93188.47;4997244;28;20088;-92
2023/06/02 06:50:09;;;;;;;2.17;1.58;;;;;;;21.03;42.29;93195.97;5041507;28;20038;-93
2023/06/02 06:52:34;;;;;;;2.50;2.05;;;;;;;21.05;42.50;93193.44;5054680;28;20049;-92
2023/06/02 06:54:59;;;;;;;2.20;1.38;;;;;;;21.04;42.27;93192.69;4995104;28;20049;-92
2023/06/02 06:57:25;;;;;;;1.52;1.17;;;;;;;21.05;42.36;93193.44;5027709;28;20539;-91
2023/06/02 06:59:50;;;;;;;2.33;1.52;;;;;;;21.06;42.49;93192.91;4995841;28;20487;-93
2023/06/02 07:02:16;;;;;;;2.45;1.77;;;;;;;21.07;42.35;93196.41;5035650;28;20095;-92
2023/06/02 07:04:41;;;;;;;1.90;1.40;;;;;;;21.07;42.41;93196.41;5031495;28;20044;-92
2023/06/02 07:07:07;;;;;;;2.30;1.77;;;;;;;21.07;42.34;93194.38;5038451;28;20049;-93
2023/06/02 07:09:32;;;;;;;1.92;1.58;;;;;;;21.09;42.45;93191.84;5015862;28;20035;-93
2023/06/02 07:11:58;;;;;;;2.67;1.52;;;;;;;21.11;42.46;93194.06;5020143;28;20026;-91
2023/06/02 07:14:25;;;;;;;1.70;1.30;;;;;;;21.10;42.34;93201.56;5002215;28;20505;-92
2023/06/02 07:16:54;;;;;;;3.15;1.70;;;;;;;21.18;42.53;93204.41;5013760;28;20079;-89
2023/06/02 07:19:20;;;;;;;1.73;1.58;;;;;;;21.12;42.41;93203.78;4999902;28;20116;-90
2023/06/02 07:21:45;;;;;;;2.40;1.40;;;;;;;21.09;42.61;93200.09;5015633;28;20033;-92
2023/06/02 07:24:11;;;;;;;2.53;1.48;;;;;;;21.10;42.52;93198.81;5005776;28;20108;-91
2023/06/02 07:26:36;;;;;;;1.98;1.33;;;;;;;21.11;42.52;93208.53;5017864;28;20064;-91
2023/06/02 07:29:01;;;;;;;3.45;1.70;;;;;;;21.11;42.34;93200.28;5027495;28;20088;-91
2023/06/02 07:31:27;;;;;;;2.25;1.40;;;;;;;21.13;42.47;93205.25;4993560;28;20038;-91
2023/06/02 07:33:52;;;;;;;2.80;1.50;;;;;;;21.16;42.62;93209.69;5027352;28;20052;-92
2023/06/02 07:36:18;;;;;;;2.20;1.70;;;;;;;21.18;42.44;93201.66;5021485;28;20128;-91
2023/06/02 07:38:43;;;;;;;1.75;1.17;;;;;;;21.16;42.27;93198.69;5008621;28;20045;-91
2023/06/02 07:41:09;;;;;;;2.22;1.42;;;;;;;21.17;42.49;93202.94;4987427;28;20162;-91
2023/06/02 07:43:34;;;;;;;4.25;1.13;;;;;;;21.17;42.50;93200.19;5034036;28;20045;-91
2023/06/02 07:46:00;;;;;;;2.95;1.30;;;;;;;21.15;42.38;93195.22;5007830;28;20034;-92
2023/06/02 07:48:25;;;;;;;2.53;1.20;;;;;;;21.15;42.52;93192.47;5040810;28;20041;-91
2023/06/02 07:50:51;;;;;;;1.77;1.23;;;;;;;21.16;42.45;93199.44;5034844;28;20038;-91
2023/06/02 07:53:41;;;;;;;3.25;1.80;;;;;;;21.15;42.69;93203.47;5014641;28;20044;-91
2023/06/02 07:56:14;;;;;;;2.17;1.40;;;;;;;21.16;42.61;93198.69;5012910;28;20076;-91
2023/06/02 07:58:39;;;;;;;1.83;1.15;;;;;;;21.17;42.55;93203.66;5045654;28;20403;-91
2023/06/02 08:01:05;;;;;;;1.42;0.95;;;;;;;21.16;42.68;93196.69;5053530;28;20041;-91
2023/06/02 08:03:31;;;;;;;1.70;1.40;;;;;;;21.17;42.71;93200.19;5028143;28;20051;-92
2023/06/02 08:05:56;;;;;;;3.30;1.42;;;;;;;21.15;42.63;93199.97;5008840;28;20040;-90
2023/06/02 08:08:22;;;;;;;1.65;1.00;;;;;;;21.15;42.82;93192.47;5036487;28;20048;-90
2023/06/02 08:10:47;;;;;;;2.10;1.33;;;;;;;21.16;42.90;93196.69;5011848;28;20048;-89
2023/06/02 08:13:15;;;;;;;3.05;1.10;;;;;;;21.16;42.79;93196.69;5023856;28;20049;-90
2023/06/02 08:15:40;;;;;;;2.42;1.10;;;;;;;21.16;42.81;93193.94;5025366;28;20196;-90
2023/06/02 08:18:12;;;;;;;1.27;0.88;;;;;;;21.16;42.87;93204.19;5006813;28;20069;-90
2023/06/02 08:20:37;;;;;;;2.35;1.20;;;;;;;21.15;42.95;93189.72;4995312;28;20834;-90
2023/06/02 08:23:03;;;;;;;1.70;1.00;;;;;;;21.16;43.01;93190.44;5031588;28;20072;-89
2023/06/02 08:25:29;;;;;;;2.20;1.10;;;;;;;21.15;42.84;93197.22;5010317;28;20065;-91
2023/06/02 08:27:54;;;;;;;5.20;1.88;;;;;;;21.23;43.09;93195.31;5029820;28;20049;-90
2023/06/02 08:30:20;;;;;;;7.85;1.60;;;;;;;21.21;43.19;93195.13;5010095;28;20045;-89
2023/06/02 08:32:48;;;;;;;3.50;1.67;;;;;;;21.20;42.93;93204.63;4994462;28;20049;-90
2023/06/02 08:35:13;;;;;;;2.80;1.60;;;;;;;21.18;42.91;93205.16;4993349;28;20068;-91
2023/06/02 08:37:40;;;;;;;1.50;1.08;;;;;;;21.18;43.23;93205.16;4990080;28;20650;-90
2023/06/02 08:40:07;;;;;;;2.35;1.60;;;;;;;21.17;43.50;93200.19;4967033;28;20092;-90
2023/06/02 08:42:33;;;;;;;4.18;1.60;;;;;;;21.17;43.15;93202.94;5007296;28;20038;-90
2023/06/02 08:44:58;;;;;;;2.00;1.48;;;;;;;21.17;43.13;93200.19;5006355;28;20199;-91
2023/06/02 08:47:24;;;;;;;2.92;1.10;;;;;;;21.17;43.21;93195.41;4981296;28;20046;-90
2023/06/02 08:49:49;;;;;;;2.13;1.50;;;;;;;21.19;43.14;93190.13;4991644;28;20061;-90
2023/06/02 08:52:22;;;;;;;1.80;1.25;;;;;;;21.17;43.13;93192.66;5007205;28;20496;-91
2023/06/02 08:54:48;;;;;;;2.25;1.17;;;;;;;21.18;43.19;93196.16;5013627;28;20056;-91
2023/06/02 08:57:16;;;;;;;1.98;1.42;;;;;;;21.17;43.36;93189.19;4974128;28;20048;-92
2023/06/02 08:59:44;;;;;;;2.83;1.52;;;;;;;21.17;43.14;93191.94;4976704;28;20647;-90
2023/06/02 09:02:10;;;;;;;2.35;1.35;;;;;;;21.16;42.89;93199.44;5006644;28;20045;-91
2023/06/02 09:04:35;;;;;;;2.28;1.33;;;;;;;21.18;43.02;93187.91;5003968;28;20077;-90
2023/06/02 09:07:13;;;;;;;1.65;1.40;;;;;;;21.17;43.30;93187.16;4996388;28;20049;-91
2023/06/02 09:09:39;;;;;;;1.42;1.00;;;;;;;21.17;43.13;93200.19;5044763;28;20041;-92
2023/06/02 09:12:06;;;;;;;3.35;1.40;;;;;;;21.18;43.36;93194.16;5023634;28;20189;-91
2023/06/02 09:14:31;;;;;;;1.45;1.15;;;;;;;21.22;43.22;93198.59;4991800;28;20084;-89
2023/06/02 09:16:57;;;;;;;1.17;1.08;;;;;;;21.17;43.24;93189.91;4989760;28;20489;-91
2023/06/02 09:19:22;;;;;;;1.70;1.50;;;;;;;21.22;43.22;93193.09;5007803;28;20069;-90
2023/06/02 09:21:48;;;;;;;1.55;1.10;;;;;;;21.20;43.29;93193.66;4976922;28;20054;-90
2023/06/02 09:24:13;;;;;;;4.93;1.55;;;;;;;21.22;43.06;93190.38;4991736;28;20046;-90
2023/06/02 09:26:52;;;;;;;9.30;1.88;;;;;;;21.19;43.13;93187.38;5009381;28;20494;-90
2023/06/02 09:29:18;;;;;;;6.88;1.40;;;;;;;21.21;43.19;93192.38;5013846;28;20067;-90
2023/06/02 09:31:52;;;;;;;1.73;0.75;;;;;;;21.20;43.12;93196.41;5046034;28;20439;-89
2023/06/02 09:34:18;;;;;;;2.65;1.30;;;;;;;21.18;43.24;93187.91;5030657;28;20049;-88
2023/06/02 09:36:45;;;;;;;7.13;1.40;;;;;;;21.19;43.33;93183.88;5028229;28;20551;-90
2023/06/02 09:39:11;;;;;;;1.67;0.82;;;;;;;21.17;43.17;93189.91;5011437;28;20038;-89
2023/06/02 09:41:38;;;;;;;5.90;1.60;;;;;;;21.22;43.29;93198.59;5024602;28;20034;-90
2023/06/02 09:44:13;;;;;;;4.97;1.33;;;;;;;21.19;43.60;93203.88;5039506;28;20051;-89
2023/06/02 09:46:40;;;;;;;17.20;1.77;;;;;;;21.23;43.54;93191.81;5011332;28;20033;-91
2023/06/02 09:49:05;;;;;;;6.78;1.52;;;;;;;;;;5027226;28;20511;-90
2023/06/02 09:51:31;;;;;;;9.03;1.57;;;;;;;21.24;43.58;93190.53;5012522;28;20045;-90
2023/06/02 09:53:57;;;;;;;4.72;1.63;;;;;;;21.27;43.83;93195.72;5010280;28;20769;-90
2023/06/02 09:56:27;;;;;;;2.25;1.17;;;;;;;21.23;43.67;93198.06;5009808;28;20045;-90
2023/06/02 09:58:56;;;;;;;3.83;1.20;;;;;;;21.22;43.78;93191.06;5011020;28;20061;-90
2023/06/02 10:01:24;;;;;;;2.65;1.15;;;;;;;21.24;43.64;93194.03;5011593;28;20037;-90
2023/06/02 10:03:50;;;;;;;4.32;1.20;;;;;;;21.23;43.47;93191.81;5011112;28;20475;-90
2023/06/02 10:06:25;;;;;;;1.05;0.77;;;;;;;21.19;43.38;93195.63;5010900;28;20037;-90
2023/06/02 10:09:07;;;;;;;1.73;0.85;;;;;;;21.24;43.46;93194.03;5010644;28;20081;-89
2023/06/02 10:12:04;;;;;;;6.05;1.83;;;;;;;21.23;43.78;93197.31;5027521;28;20040;-90
2023/06/02 10:14:35;;;;;;;5.60;1.75;;;;;;;21.27;43.78;93195.72;5026787;28;20093;-90
2023/06/02 10:17:15;;;;;;;3.10;1.13;;;;;;;21.26;43.67;93190.75;5027126;28;20041;-90
2023/06/02 10:19:49;;;;;;;3.25;1.40;;;;;;;21.24;43.78;93191.28;5011100;28;20124;-90
2023/06/02 10:22:20;;;;;;;6.38;1.73;;;;;;;21.23;43.72;93189.81;5043766;28;20459;-90
2023/06/02 10:25:17;;;;;;;2.88;1.70;;;;;;;21.21;44.04;93195.13;5043744;28;20048;-89
2023/06/02 10:27:47;;;;;;;6.13;1.30;;;;;;;;;;5042002;28;20057;-90
2023/06/02 10:30:19;;;;;;;34.28;25.23;;;;;;;21.23;43.74;93189.81;5027136;28;20045;-90
2023/06/02 10:32:47;;;;;;;6.85;3.92;;;;;;;21.22;43.71;93190.38;5034602;28;20036;-89
2023/06/02 10:35:13;;;;;;;1.85;1.40;;;;;;;21.21;43.30;93178.63;5013065;28;20041;-90
2023/06/02 10:37:39;;;;;;;0.80;0.70;;;;;;;21.27;43.48;93178.47;4997605;28;20038;-89
2023/06/02 10:40:10;;;;;;;2.63;0.90;;;;;;;21.27;43.50;93179.22;4994891;28;20049;-90
2023/06/02 10:42:35;;;;;;;3.00;1.92;;;;;;;21.29;43.59;93182.16;5011658;28;20124;-90
2023/06/02 10:45:24;;;;;;;3.22;1.35;;;;;;;21.25;43.61;93178.28;5026972;28;20044;-90
2023/06/02 10:47:49;;;;;;;1.45;1.23;;;;;;;21.26;43.33;93185.25;5026848;28;20037;-89
2023/06/02 10:50:21;;;;;;;2.53;1.80;;;;;;;21.23;43.56;93178.81;5010233;28;20090;-89
2023/06/02 10:53:07;;;;;;;1.88;1.50;;;;;;;21.23;43.52;93189.06;5032527;28;20044;-90
2023/06/02 10:55:34;;;;;;;1.10;1.00;;;;;;;21.22;43.56;93188.31;5032280;28;20046;-90
2023/06/02 10:58:01;;;;;;;1.77;1.58;;;;;;;21.23;43.71;93178.81;5042860;28;20065;-90
2023/06/02 11:00:29;;;;;;;2.42;1.55;;;;;;;21.23;43.52;93186.31;5035961;28;20144;-90
2023/06/02 11:02:55;;;;;;;1.90;1.38;;;;;;;21.24;43.51;93180.28;5029223;28;20048;-91
2023/06/02 11:05:23;;;;;;;1.45;1.20;;;;;;;21.23;43.58;93170.56;5043997;28;20049;-90
2023/06/02 11:08:11;;;;;;;1.52;1.13;;;;;;;21.22;43.60;93174.56;5008743;28;20048;-90
2023/06/02 11:10:41;;;;;;;2.20;1.88;;;;;;;21.22;43.68;93166.34;5046659;28;20053;-89
2023/06/02 11:13:07;;;;;;;;;;;;;;;21.24;43.80;93179.53;5030384;28;20042;-90
2023/06/02 11:15:32;;;;;;;2.05;1.20;;;;;;;21.20;43.81;93172.38;5079934;28;19928;-90
2023/06/02 11:17:58;;;;;;;2.78;1.40;;;;;;;21.20;43.81;93175.13;5008561;28;20038;-91
2023/06/02 11:20:37;;;;;;;1.67;1.17;;;;;;;21.19;43.71;93178.38;5024836;28;20404;-90
2023/06/02 11:23:04;;;;;;;4.10;0.90;;;;;;;21.22;43.85;93179.38;5013312;28;20044;-90
2023/06/02 11:25:30;;;;;;;1.27;1.02;;;;;;;21.21;43.60;93170.38;5044706;28;20045;-89
2023/06/02 11:27:55;;;;;;;2.08;1.38;;;;;;;21.21;43.97;93167.63;5025553;28;20038;-89
2023/06/02 11:30:20;;;;;;;2.70;1.40;;;;;;;21.22;43.76;93173.88;5037865;28;20033;-90
2023/06/02 11:32:48;;;;;;;4.93;1.70;;;;;;;21.20;43.87;93169.63;5010728;28;20034;-88